Main page
METAR-TAF:

METAR-TAF

Airports :

Edinburgh, Scotland

Edinburgh Airport

latitude: 55-57N, longitude: 003-21W, elevation: 41 m

Current weather observation

The report was made 31 minutes ago, at 03:50 UTC
Wind 5 kt from the West
Temperature 4°C
Humidity 87%
Pressure 1009 hPa
Visibility 10 km or more
no clouds below 1500 m and no cumulonimbus

METAR: EGPH 270350Z 27005KT CAVOK 04/02 Q1009

Time: 05:21 (04:21 UTC)

Forecast

The report was made 5 hours and 21 minutes ago, at 23:00 UTC
Forecast valid from 27 at 00 UTC to 27 at 24 UTC
Wind 12 kt from the West/Southwest
Visibility 10 km or more
Few clouds at a height of 4000 ft
Becoming
from 27 at 12 UTC to 27 at 15 UTC
Wind 6 kt from the East/Northeast
Probability 40% :
Temporary
from 27 at 15 UTC to 27 at 22 UTC
Visibility: 7000 m
Broken clouds at a height of 1200 ft
rain showers

TAF: EGPH 262300Z 2700/2724 25012KT 9999 FEW040 BECMG 2712/2715 07006KT PROB40 TEMPO 2715/2722 7000 SHRA BKN012

Weather observations and forecasts of more than 4000 airports (METAR and TAF reports).

The available stations are represented by yellow and red dots on the map.

Hover mouse over dot to see the name of the station.

Then click to see weather observations and forecasts.

To change the map : click on the green buttons with a black cross to zoom in, on the green button with a dash to zoom out, or on the green arrows for adjacent maps.


METAR-TAF: